»·PEaware :: N4122T KEMT-KOXR

N4122T :: KEMT-KOXR

FLIGHT INFORMATION

Flight Status: Arrived
Operator: Privately registered:
United States
More flights under this callsign
Pilot: Ulli W. (2180)
Aircraft: CESSNA 172 SKYHAWK
(C172)
More flights by this aircraft type
Origin: KEMT El Monte
United States
Destination: KOXR Oxnard
United States
More flights between these airports :: More routes between these airports
Route: +PDZ V186 FIM
File this flight plan on PilotEdge
Remarks:
Altitude:
(Current/Filed)
6,000ft
Speed:
(Current/Filed)
0kts
Departed: 11-Nov-19 08:08 AM
Arrived: 11-Nov-19 08:49 AM
Distance/Time
Traveled:
59nm/0:40
Distance/Time
To Go:
Arrived

Flight Plot

Page will automatically refresh every two minutes.


Map Options




Map Legend


Flown Route
Filed Route
Departure Airport
Arrival Airport
Navaid (VOR, NDB)
Fix

Horizontal Profiles

Position Reports

Time Latitude Longitude Heading Altitude Ground
Speed
11-Nov-19 08:02 34.087191 -118.032166 24 299ft 0kts
11-Nov-19 08:03 34.087191 -118.032166 24 299ft 0kts
11-Nov-19 08:04 34.087288 -118.032134 3 299ft 7kts
11-Nov-19 08:05 34.090710 -118.031561 302 299ft 0kts
11-Nov-19 08:06 34.090714 -118.031570 302 299ft 1kts
11-Nov-19 08:07 34.078669 -118.038682 200 680ft 88kts
11-Nov-19 08:08 34.057083 -118.043023 128 1829ft 73kts
11-Nov-19 08:09 34.058392 -118.018372 80 2675ft 89kts
11-Nov-19 08:10 34.062798 -117.986787 80 3540ft 91kts
11-Nov-19 08:11 34.073192 -117.963736 352 4237ft 108kts
11-Nov-19 08:12 34.094461 -117.998525 298 3886ft 134kts
11-Nov-19 08:13 34.108591 -118.032522 296 4789ft 89kts
11-Nov-19 08:14 34.114293 -118.053568 315 5693ft 58kts
11-Nov-19 08:15 34.121861 -118.079251 270 6032ft 102kts
11-Nov-19 08:16 34.128598 -118.119906 284 5969ft 131kts
11-Nov-19 08:17 34.136467 -118.163419 285 5980ft 131kts
11-Nov-19 08:18 34.144406 -118.206718 285 5981ft 131kts
11-Nov-19 08:19 34.152318 -118.249948 285 5983ft 131kts
11-Nov-19 08:20 34.163322 -118.291819 295 5984ft 129kts
11-Nov-19 08:21 34.176647 -118.332273 294 5984ft 129kts
11-Nov-19 08:22 34.190021 -118.372745 294 5983ft 129kts
11-Nov-19 08:23 34.203448 -118.413466 294 5982ft 130kts
11-Nov-19 08:24 34.216858 -118.454162 294 5980ft 130kts
11-Nov-19 08:25 34.230308 -118.495030 294 5978ft 130kts
11-Nov-19 08:26 34.243746 -118.535918 294 5976ft 130kts
11-Nov-19 08:27 34.254842 -118.577684 267 5911ft 137kts
11-Nov-19 08:28 34.249820 -118.626380 264 5214ft 146kts
11-Nov-19 08:29 34.244944 -118.671936 264 4518ft 130kts
11-Nov-19 08:30 34.238513 -118.713773 240 4019ft 115kts
11-Nov-19 08:31 34.221612 -118.742928 235 4029ft 100kts
11-Nov-19 08:32 34.209321 -118.772038 258 4033ft 96kts
11-Nov-19 08:33 34.202374 -118.803489 257 4037ft 96kts
11-Nov-19 08:34 34.196099 -118.835157 259 4037ft 96kts
11-Nov-19 08:35 34.192486 -118.867269 269 4037ft 96kts
11-Nov-19 08:36 34.193965 -118.899870 280 4037ft 98kts
11-Nov-19 08:37 34.198852 -118.932815 284 4037ft 99kts
11-Nov-19 08:38 34.201310 -118.966498 274 3937ft 96kts
11-Nov-19 08:39 34.202227 -119.000284 274 3577ft 102kts
11-Nov-19 08:40 34.202812 -119.035239 266 3044ft 109kts
11-Nov-19 08:41 34.201029 -119.071285 261 2292ft 107kts
11-Nov-19 08:42 34.200330 -119.105769 282 1595ft 97kts
11-Nov-19 08:43 34.200966 -119.137522 273 1058ft 90kts
11-Nov-19 08:44 34.200158 -119.167245 270 633ft 90kts
11-Nov-19 08:45 34.209305 -119.192740 294 449ft 82kts
11-Nov-19 08:46 34.208587 -119.221106 258 326ft 85kts
11-Nov-19 08:47 34.200980 -119.222062 87 228ft 70kts
11-Nov-19 08:48 34.200639 -119.207554 149 45ft 24kts
11-Nov-19 08:49 34.199007 -119.206577 87 45ft 0kts
11-Nov-19 08:50 34.199007 -119.206577 87 45ft 0kts
11-Nov-19 08:51 34.199007 -119.206577 87 45ft 0kts
11-Nov-19 08:52 34.199007 -119.206577 87 45ft 0kts
11-Nov-19 08:53 34.199007 -119.206577 87 45ft 0kts
11-Nov-19 08:54 34.199007 -119.206577 87 45ft 0kts
11-Nov-19 08:55 34.199007 -119.206577 87 45ft 0kts
11-Nov-19 08:56 34.199007 -119.206577 87 45ft 0kts
11-Nov-19 08:57 34.199007 -119.206577 87 45ft 0kts
11-Nov-19 08:58 34.199007 -119.206577 87 45ft 0kts
11-Nov-19 08:59 34.199007 -119.206577 87 45ft 0kts
11-Nov-19 09:00 34.199007 -119.206577 87 45ft 0kts
11-Nov-19 09:02 34.199007 -119.206577 87 45ft 0kts
11-Nov-19 09:03 34.199007 -119.206577 87 45ft 0kts

Navigation Log

Ident Type
Flight plan parsing failed, navigation log unavailable